createdAt,value
2018-03-08T00:01:39.260Z,94287.61
2018-03-08T00:04:07.098Z,94283.41
2018-03-08T00:06:35.105Z,94283.75
2018-03-08T00:09:03.085Z,94289.16
2018-03-08T00:11:30.984Z,94279.84
2018-03-08T00:13:58.905Z,94284.29
2018-03-08T00:16:26.866Z,94271.54
2018-03-08T00:18:54.827Z,94280.50
2018-03-08T00:21:22.783Z,94275.97
2018-03-08T00:23:50.704Z,94269.48
2018-03-08T00:26:18.648Z,94260.66
2018-03-08T00:28:46.632Z,94262.11
2018-03-08T00:31:14.581Z,94260.88
2018-03-08T00:33:42.533Z,94259.22
2018-03-08T00:36:10.526Z,94252.92
2018-03-08T00:38:38.489Z,94248.38
2018-03-08T00:41:06.497Z,94232.13
2018-03-08T00:43:34.338Z,94246.92
2018-03-08T00:46:02.277Z,94245.83
2018-03-08T00:48:30.144Z,94240.23
2018-03-08T00:50:58.148Z,94229.59
2018-03-08T00:53:26.042Z,94224.78
2018-03-08T00:55:53.965Z,94220.71
2018-03-08T00:58:21.924Z,94220.58
2018-03-08T01:00:49.997Z,94215.36
2018-03-08T01:03:18.468Z,94218.09
2018-03-08T01:05:46.424Z,94214.20
2018-03-08T01:08:14.413Z,94219.59
2018-03-08T01:10:42.390Z,94218.33
2018-03-08T01:13:10.310Z,94213.48
2018-03-08T01:15:38.257Z,94212.89
2018-03-08T01:18:06.265Z,94211.84
2018-03-08T01:20:34.212Z,94202.54
2018-03-08T01:23:02.173Z,94192.70
2018-03-08T01:25:30.096Z,94192.64
2018-03-08T01:27:58.045Z,94186.52
2018-03-08T01:30:25.985Z,94181.87
2018-03-08T01:32:53.937Z,94183.88
2018-03-08T01:35:21.942Z,94180.54
2018-03-08T01:37:49.825Z,94175.65
2018-03-08T01:40:17.787Z,94178.78
2018-03-08T01:42:45.734Z,94177.84
2018-03-08T01:45:13.662Z,94177.56
2018-03-08T01:47:41.647Z,94175.44
2018-03-08T01:50:09.444Z,94176.52
2018-03-08T01:52:37.352Z,94174.47
2018-03-08T01:55:05.281Z,94164.22
2018-03-08T01:57:33.217Z,94162.84
2018-03-08T02:00:01.176Z,94166.19
2018-03-08T02:02:29.149Z,94164.08
2018-03-08T02:04:57.474Z,94154.28
2018-03-08T02:07:25.378Z,94161.48
2018-03-08T02:09:53.286Z,94154.61
2018-03-08T02:12:21.238Z,94151.27
2018-03-08T02:14:49.218Z,94155.48
2018-03-08T02:17:17.297Z,94147.83
2018-03-08T02:19:45.253Z,94143.84
2018-03-08T02:22:13.253Z,94149.84
2018-03-08T02:24:41.116Z,94142.72
2018-03-08T02:27:09.076Z,94142.03
2018-03-08T02:29:37.063Z,94141.97
2018-03-08T02:32:04.987Z,94144.01
2018-03-08T02:34:32.994Z,94135.55
2018-03-08T02:37:00.988Z,94133.56
2018-03-08T02:39:28.989Z,94131.78
2018-03-08T02:41:56.916Z,94127.84
2018-03-08T02:44:24.875Z,94115.96
2018-03-08T02:46:52.825Z,94106.89
2018-03-08T02:49:20.831Z,94112.77
2018-03-08T02:51:48.761Z,94125.54
2018-03-08T02:54:16.782Z,94130.48
2018-03-08T02:56:44.701Z,94130.31
2018-03-08T02:59:12.602Z,94116.45
2018-03-08T03:01:40.558Z,94124.28
2018-03-08T03:04:08.477Z,94134.23
2018-03-08T03:06:36.713Z,94129.80
2018-03-08T03:09:04.697Z,94119.00
2018-03-08T03:11:32.549Z,94121.53
2018-03-08T03:14:00.504Z,94124.75
2018-03-08T03:16:28.430Z,94122.27
2018-03-08T03:18:56.376Z,94122.72
2018-03-08T03:21:24.430Z,94124.33
2018-03-08T03:23:52.489Z,94115.97
2018-03-08T03:26:20.491Z,94116.80
2018-03-08T03:28:48.412Z,94111.46
2018-03-08T03:31:16.342Z,94114.97
2018-03-08T03:33:44.256Z,94113.11
2018-03-08T03:36:12.142Z,94109.16
2018-03-08T03:38:40.074Z,94111.09
2018-03-08T03:41:07.973Z,94105.83
2018-03-08T03:43:35.914Z,94099.14
2018-03-08T03:46:03.896Z,94106.65
2018-03-08T03:48:31.891Z,94097.67
2018-03-08T03:50:59.809Z,94095.68
2018-03-08T03:53:27.774Z,94094.70
2018-03-08T03:55:55.719Z,94091.62
2018-03-08T03:58:23.690Z,94085.70
2018-03-08T04:00:51.651Z,94068.26
2018-03-08T04:03:19.662Z,94080.52
2018-03-08T04:05:47.613Z,94081.66
2018-03-08T04:08:16.000Z,94077.27
2018-03-08T04:10:43.952Z,94074.88
2018-03-08T04:13:11.928Z,94076.30
2018-03-08T04:15:39.853Z,94079.92
2018-03-08T04:18:07.795Z,94078.75
2018-03-08T04:20:35.767Z,94075.23
2018-03-08T04:23:03.812Z,94069.00
2018-03-08T04:25:31.671Z,94064.31
2018-03-08T04:27:59.641Z,94062.53
2018-03-08T04:30:27.634Z,94062.98
2018-03-08T04:32:55.525Z,94057.61
2018-03-08T04:35:23.510Z,94053.67
2018-03-08T04:37:51.433Z,94049.61
2018-03-08T04:40:19.397Z,94060.17
2018-03-08T04:42:47.362Z,94067.83
2018-03-08T04:45:15.304Z,94071.84
2018-03-08T04:47:43.196Z,94068.98
2018-03-08T04:50:11.294Z,94074.16
2018-03-08T04:52:39.220Z,94076.88
2018-03-08T04:55:07.157Z,94082.92
2018-03-08T04:57:35.118Z,94084.55
2018-03-08T05:00:03.120Z,94076.89
2018-03-08T05:02:31.110Z,94079.39
2018-03-08T05:04:59.055Z,94080.22
2018-03-08T05:07:26.944Z,94074.97
2018-03-08T05:09:55.114Z,94070.28
2018-03-08T05:12:23.045Z,94073.07
2018-03-08T05:14:51.013Z,94074.74
2018-03-08T05:17:18.986Z,94077.19
2018-03-08T05:19:46.931Z,94078.64
2018-03-08T05:22:14.841Z,94062.54
2018-03-08T05:24:42.855Z,94075.70
2018-03-08T05:27:10.853Z,94074.52
2018-03-08T05:29:38.766Z,94072.39
2018-03-08T05:32:06.775Z,94072.39
2018-03-08T05:34:34.656Z,94069.41
2018-03-08T05:37:02.642Z,94069.23
2018-03-08T05:39:30.612Z,94059.45
2018-03-08T05:41:58.544Z,94074.56
2018-03-08T05:44:26.458Z,94075.12
2018-03-08T05:46:54.330Z,94076.02
2018-03-08T05:49:22.294Z,94078.28
2018-03-08T05:51:50.350Z,94075.57
2018-03-08T05:54:18.184Z,94077.02
2018-03-08T05:56:46.085Z,94073.05
2018-03-08T05:59:14.065Z,94071.87
2018-03-08T06:01:41.999Z,94066.91
2018-03-08T06:04:09.894Z,94058.88
2018-03-08T06:06:37.857Z,94053.03
2018-03-08T06:09:05.788Z,94057.43
2018-03-08T06:11:34.211Z,94057.58
2018-03-08T06:14:02.133Z,94056.52
2018-03-08T06:16:30.105Z,94057.51
2018-03-08T06:18:57.988Z,94049.53
2018-03-08T06:21:25.935Z,94046.29
2018-03-08T06:23:53.897Z,94053.84
2018-03-08T06:26:21.890Z,94057.64
2018-03-08T06:28:50.498Z,94049.28
2018-03-08T06:31:18.879Z,94049.42
2018-03-08T06:33:46.848Z,94047.54
2018-03-08T06:36:14.745Z,94054.81
2018-03-08T06:38:42.667Z,94055.30
2018-03-08T06:41:10.600Z,94046.03
2018-03-08T06:43:38.631Z,94039.51
2018-03-08T06:46:06.567Z,94045.89
2018-03-08T06:48:34.585Z,94052.38
2018-03-08T06:51:02.556Z,94050.13
2018-03-08T06:53:30.502Z,94051.86
2018-03-08T06:55:58.510Z,94058.27
2018-03-08T06:58:26.468Z,94061.67
2018-03-08T07:00:54.375Z,94067.82
2018-03-08T07:03:22.304Z,94077.14
2018-03-08T07:05:50.217Z,94076.63
2018-03-08T07:08:18.199Z,94076.83
2018-03-08T07:10:46.158Z,94069.98
2018-03-08T07:13:14.246Z,94070.81
2018-03-08T07:15:42.252Z,94069.99
2018-03-08T07:18:10.204Z,94073.25
2018-03-08T07:20:38.142Z,94069.73
2018-03-08T07:23:06.103Z,94074.44
2018-03-08T07:25:34.056Z,94075.44
2018-03-08T07:28:02.058Z,94075.84
2018-03-08T07:30:30.012Z,94077.95
2018-03-08T07:32:57.974Z,94076.56
2018-03-08T07:35:25.901Z,94087.56
2018-03-08T07:37:53.824Z,94084.47
2018-03-08T07:40:21.717Z,94079.89
2018-03-08T07:42:49.621Z,94078.59
2018-03-08T07:45:17.553Z,94072.77
2018-03-08T07:47:45.562Z,94087.59
2018-03-08T07:50:13.589Z,94089.72
2018-03-08T07:52:41.664Z,94094.20
2018-03-08T07:55:11.847Z,94084.95
2018-03-08T07:57:39.854Z,94086.02
2018-03-08T08:00:07.802Z,94088.31
2018-03-08T08:02:35.674Z,94084.26
2018-03-08T08:05:15.394Z,94079.59
2018-03-08T08:07:55.200Z,94081.53
2018-03-08T08:10:23.126Z,94081.03
2018-03-08T08:12:51.123Z,94082.91
2018-03-08T08:15:20.882Z,94080.62
2018-03-08T08:17:49.376Z,94081.22
2018-03-08T08:20:17.759Z,94073.69
2018-03-08T08:22:46.045Z,94074.08
2018-03-08T08:25:14.295Z,94077.17
2018-03-08T08:27:42.647Z,94076.38
2018-03-08T08:30:11.059Z,94074.52
2018-03-08T08:32:39.446Z,94073.19
2018-03-08T08:35:07.709Z,94077.94
2018-03-08T08:37:36.197Z,94073.34
2018-03-08T08:40:04.578Z,94073.88
2018-03-08T08:42:33.058Z,94069.95
2018-03-08T08:45:01.317Z,94063.19
2018-03-08T08:47:29.711Z,94068.57
2018-03-08T08:49:57.889Z,94066.56
2018-03-08T08:52:26.261Z,94067.21
2018-03-08T08:54:54.547Z,94067.51
2018-03-08T08:57:23.023Z,94063.19
2018-03-08T08:59:51.562Z,94057.82
2018-03-08T09:02:20.006Z,94062.34
2018-03-08T09:04:48.471Z,94060.27
2018-03-08T09:07:17.128Z,94067.27
2018-03-08T09:09:45.421Z,94065.82
2018-03-08T09:12:13.797Z,94068.69
2018-03-08T09:14:42.070Z,94067.55
2018-03-08T09:17:11.602Z,94066.19
2018-03-08T09:19:39.949Z,94070.17
2018-03-08T09:22:08.229Z,94069.02
2018-03-08T09:24:36.613Z,94067.42
2018-03-08T09:27:05.189Z,94075.54
2018-03-08T09:29:33.657Z,94071.01
2018-03-08T09:32:01.945Z,94070.09
2018-03-08T09:34:30.738Z,94074.59
2018-03-08T09:36:59.095Z,94076.97
2018-03-08T09:39:28.534Z,94079.44
2018-03-08T09:41:56.994Z,94080.17
2018-03-08T09:44:25.469Z,94088.03
2018-03-08T09:46:53.911Z,94089.66
2018-03-08T09:49:22.278Z,94083.53
2018-03-08T09:51:50.567Z,94087.16
2018-03-08T09:54:18.828Z,94080.73
2018-03-08T09:56:47.166Z,94086.65
2018-03-08T09:59:15.158Z,94081.20
2018-03-08T10:01:43.613Z,94084.20
2018-03-08T10:04:11.515Z,94087.47
2018-03-08T10:06:39.462Z,94084.80
2018-03-08T10:09:07.453Z,94084.28
2018-03-08T10:11:35.417Z,94089.79
2018-03-08T10:14:03.304Z,94082.83
2018-03-08T10:16:31.250Z,94081.23
2018-03-08T10:18:59.898Z,94077.27
2018-03-08T10:21:44.407Z,94081.73
2018-03-08T10:23:56.144Z,94075.14
2018-03-08T10:26:24.072Z,94048.81
2018-03-08T10:28:52.037Z,94079.16
2018-03-08T10:31:19.993Z,94074.02
2018-03-08T10:33:47.972Z,94072.77
2018-03-08T10:36:15.963Z,94069.69
2018-03-08T10:38:43.920Z,94070.14
2018-03-08T10:41:11.898Z,94073.05
2018-03-08T10:43:39.846Z,94067.12
2018-03-08T10:46:07.851Z,94067.62
2018-03-08T10:48:35.790Z,94069.89
2018-03-08T10:51:03.692Z,94072.80
2018-03-08T10:53:31.654Z,94070.36
2018-03-08T10:55:59.620Z,94073.32
2018-03-08T10:58:27.606Z,94072.89
2018-03-08T11:00:55.564Z,94074.55
2018-03-08T11:03:29.084Z,94077.90
2018-03-08T11:05:57.052Z,94074.97
2018-03-08T11:08:25.112Z,94076.59
2018-03-08T11:10:53.070Z,94077.40
2018-03-08T11:13:21.084Z,94079.85
2018-03-08T11:15:49.072Z,94079.49
2018-03-08T11:18:16.969Z,94081.00
2018-03-08T11:20:45.165Z,94081.98
2018-03-08T11:23:13.161Z,94053.72
2018-03-08T11:25:41.116Z,94091.38
2018-03-08T11:28:09.075Z,94092.37
2018-03-08T11:30:37.112Z,94093.36
2018-03-08T11:33:05.070Z,94096.39
2018-03-08T11:35:33.078Z,94103.86
2018-03-08T11:38:00.997Z,94108.64
2018-03-08T11:40:28.962Z,94107.11
2018-03-08T11:42:56.842Z,94114.69
2018-03-08T11:45:24.829Z,94120.31
2018-03-08T11:47:52.782Z,94122.13
2018-03-08T11:50:21.852Z,94119.51
2018-03-08T11:52:48.780Z,94127.75
2018-03-08T11:55:16.725Z,94130.71
2018-03-08T11:57:44.668Z,94133.53
2018-03-08T12:00:12.647Z,94132.50
2018-03-08T12:02:40.678Z,94141.60
2018-03-08T12:05:08.581Z,94130.88
2018-03-08T12:07:36.484Z,94133.51
2018-03-08T12:10:04.472Z,94131.55
2018-03-08T12:12:32.404Z,94150.40
2018-03-08T12:15:00.334Z,94141.64
2018-03-08T12:17:28.250Z,94155.09
2018-03-08T12:19:56.375Z,94154.30
2018-03-08T12:22:24.861Z,94152.12
2018-03-08T12:24:52.721Z,94142.92
2018-03-08T12:27:20.661Z,94146.28
2018-03-08T12:29:48.604Z,94140.45
2018-03-08T12:32:16.950Z,94137.42
2018-03-08T12:34:45.526Z,94140.29
2018-03-08T12:37:13.490Z,94132.37
2018-03-08T12:39:41.419Z,94140.75
2018-03-08T12:42:09.322Z,94137.79
2018-03-08T12:44:37.315Z,94149.89
2018-03-08T12:47:05.246Z,94139.86
2018-03-08T12:49:33.136Z,94145.48
2018-03-08T12:52:01.101Z,94147.84
2018-03-08T12:54:29.006Z,94142.56
2018-03-08T12:56:56.913Z,94143.80
2018-03-08T12:59:24.994Z,94146.58
2018-03-08T13:01:52.885Z,94153.63
2018-03-08T13:04:20.894Z,94142.91
2018-03-08T13:06:48.842Z,94144.86
2018-03-08T13:09:16.794Z,94144.05
2018-03-08T13:11:44.790Z,94145.55
2018-03-08T13:14:12.769Z,94141.52
2018-03-08T13:16:40.720Z,94143.09
2018-03-08T13:19:08.720Z,94149.51
2018-03-08T13:21:36.637Z,94169.58
2018-03-08T13:24:04.996Z,94154.52
2018-03-08T13:26:33.068Z,94158.48
2018-03-08T13:29:00.985Z,94160.31
2018-03-08T13:31:28.931Z,94157.73
2018-03-08T13:33:56.862Z,94165.57
2018-03-08T13:36:24.751Z,94167.69
2018-03-08T13:38:52.723Z,94174.42
2018-03-08T13:41:20.665Z,94171.96
2018-03-08T13:43:48.547Z,94172.22
2018-03-08T13:46:16.514Z,94174.63
2018-03-08T13:48:44.460Z,94170.55
2018-03-08T13:51:12.402Z,94171.84
2018-03-08T13:53:40.309Z,94171.11
2018-03-08T13:56:08.186Z,94173.70
2018-03-08T13:58:36.087Z,94174.19
2018-03-08T14:01:04.099Z,94173.09
2018-03-08T14:03:32.054Z,94176.38
2018-03-08T14:06:00.038Z,94178.98
2018-03-08T14:08:27.888Z,94183.12
2018-03-08T14:10:55.843Z,94186.73
2018-03-08T14:13:23.790Z,94169.92
2018-03-08T14:15:51.916Z,94182.69
2018-03-08T14:18:19.806Z,94179.55
2018-03-08T14:20:47.773Z,94193.39
2018-03-08T14:23:15.757Z,94182.02
2018-03-08T14:25:44.222Z,94169.16
2018-03-08T14:28:12.195Z,94202.00
2018-03-08T14:30:40.084Z,94204.23
2018-03-08T14:33:08.059Z,94136.09
2018-03-08T14:35:35.997Z,94212.69
2018-03-08T14:38:03.978Z,94211.14
2018-03-08T14:40:31.940Z,94211.28
2018-03-08T14:42:59.974Z,94210.41
2018-03-08T14:45:27.873Z,94214.54
2018-03-08T14:47:55.832Z,94207.74
2018-03-08T14:50:23.794Z,94211.59
2018-03-08T14:52:51.629Z,94229.34
2018-03-08T14:55:19.516Z,94234.65
2018-03-08T14:57:47.507Z,94245.81
2018-03-08T15:00:15.472Z,94247.49
2018-03-08T15:02:43.424Z,94239.64
2018-03-08T15:05:11.377Z,94246.28
2018-03-08T15:07:39.278Z,94254.83
2018-03-08T15:10:07.269Z,94156.31
2018-03-08T15:12:35.249Z,94264.55
2018-03-08T15:15:03.221Z,94175.91
2018-03-08T15:17:31.205Z,94268.81
2018-03-08T15:20:00.228Z,94266.52
2018-03-08T15:22:28.179Z,94285.92
2018-03-08T15:24:56.138Z,94280.34
2018-03-08T15:27:24.852Z,94289.95
2018-03-08T15:29:52.802Z,94296.91
2018-03-08T15:32:20.683Z,94295.17
2018-03-08T15:34:48.585Z,94300.49
2018-03-08T15:37:16.477Z,94301.28
2018-03-08T15:39:44.353Z,94309.00
2018-03-08T15:42:12.330Z,94313.95
2018-03-08T15:44:40.297Z,94318.93
2018-03-08T15:47:08.212Z,94323.77
2018-03-08T15:49:36.117Z,94325.60
2018-03-08T15:52:04.056Z,94332.33
2018-03-08T15:54:32.504Z,94337.66
2018-03-08T15:57:00.671Z,94345.67
2018-03-08T15:59:29.059Z,94342.70
2018-03-08T16:01:57.419Z,94350.07
2018-03-08T16:04:25.723Z,94350.55
2018-03-08T16:10:31.448Z,94360.14
2018-03-08T16:12:59.858Z,94359.41
2018-03-08T16:15:28.546Z,94368.67
2018-03-08T16:17:57.216Z,94364.66
2018-03-08T16:20:25.514Z,94381.76
2018-03-08T16:22:53.732Z,94354.02
2018-03-08T16:25:21.886Z,94387.48
2018-03-08T16:27:50.843Z,94390.70
2018-03-08T16:30:19.024Z,94401.09
2018-03-08T16:32:47.396Z,94396.79
2018-03-08T16:35:15.586Z,94412.34
2018-03-08T16:37:44.262Z,94426.77
2018-03-08T16:40:12.616Z,94431.52
2018-03-08T16:42:40.561Z,94434.12
2018-03-08T16:45:08.453Z,94438.97
2018-03-08T16:47:36.366Z,94452.30
2018-03-08T16:50:04.353Z,94404.77
2018-03-08T16:52:32.333Z,94461.56
2018-03-08T16:55:00.281Z,94471.53
2018-03-08T16:57:28.321Z,94472.25
2018-03-08T16:59:56.241Z,94479.41
2018-03-08T17:02:24.178Z,94489.97
2018-03-08T17:04:52.150Z,94492.45
2018-03-08T17:07:20.050Z,94513.14
2018-03-08T17:09:47.999Z,94513.03
2018-03-08T17:12:15.974Z,94522.98
2018-03-08T17:14:44.118Z,94526.58
2018-03-08T17:17:12.321Z,94533.81
2018-03-08T17:19:40.307Z,94529.83
2018-03-08T17:22:08.258Z,94536.47
2018-03-08T17:24:36.219Z,94526.58
2018-03-08T17:27:04.188Z,94544.37
2018-03-08T17:29:32.414Z,94549.17
2018-03-08T17:32:00.330Z,94566.23
2018-03-08T17:34:28.273Z,94565.89
2018-03-08T17:36:56.228Z,94564.16
2018-03-08T17:39:24.117Z,94577.17
2018-03-08T17:41:52.102Z,94574.27
2018-03-08T17:44:20.061Z,94579.32
2018-03-08T17:46:48.017Z,94575.36
2018-03-08T17:49:16.008Z,94575.91
2018-03-08T17:51:43.945Z,94586.88
2018-03-08T17:54:11.809Z,94585.70
2018-03-08T17:56:39.745Z,94588.95
2018-03-08T17:59:07.709Z,94594.38
2018-03-08T18:01:35.687Z,94592.42
2018-03-08T18:04:03.610Z,94605.09
2018-03-08T18:06:31.593Z,94607.59
2018-03-08T18:08:59.484Z,94614.45
2018-03-08T18:11:27.763Z,94620.20
2018-03-08T18:13:56.157Z,94628.84
2018-03-08T18:16:24.371Z,94636.73
2018-03-08T18:18:52.803Z,94637.52
2018-03-08T18:21:21.599Z,94636.77
2018-03-08T18:23:49.635Z,94641.51
2018-03-08T18:26:17.554Z,94638.77
2018-03-08T18:28:45.492Z,94638.73
2018-03-08T18:31:13.763Z,94641.91
2018-03-08T18:33:41.698Z,94648.59
2018-03-08T18:36:09.702Z,94654.87
2018-03-08T18:38:37.600Z,94656.77
2018-03-08T18:41:05.509Z,94667.27
2018-03-08T18:43:33.558Z,94674.64
2018-03-08T18:46:01.465Z,94685.27
2018-03-08T18:48:29.382Z,94691.52
2018-03-08T18:50:57.347Z,94695.34
2018-03-08T18:53:25.295Z,94699.48
2018-03-08T18:55:53.242Z,94706.92
2018-03-08T18:58:26.302Z,94701.97
2018-03-08T19:00:54.292Z,94708.20
2018-03-08T19:03:22.361Z,94721.61
2018-03-08T19:05:50.273Z,94712.04
2018-03-08T19:08:18.381Z,94714.63
2018-03-08T19:10:46.386Z,94723.73
2018-03-08T19:13:14.324Z,94736.48
2018-03-08T19:15:42.281Z,94743.58
2018-03-08T19:18:10.216Z,94747.78
2018-03-08T19:20:38.098Z,94754.61
2018-03-08T19:23:06.067Z,94762.25
2018-03-08T19:25:33.985Z,94769.14
2018-03-08T19:28:01.905Z,94775.55
2018-03-08T19:30:29.864Z,94778.61
2018-03-08T19:32:58.100Z,94781.23
2018-03-08T19:35:26.033Z,94784.75
2018-03-08T19:37:53.995Z,94792.08
2018-03-08T19:40:21.897Z,94790.34
2018-03-08T19:42:49.809Z,94799.10
2018-03-08T19:45:17.765Z,94805.82
2018-03-08T19:47:45.686Z,94810.88
2018-03-08T19:50:13.635Z,94815.69
2018-03-08T19:52:41.469Z,94808.63
2018-03-08T19:55:09.511Z,94824.59
2018-03-08T19:57:37.423Z,94830.71
2018-03-08T20:00:05.408Z,94828.11
2018-03-08T20:02:33.353Z,94844.17
2018-03-08T20:05:01.278Z,94844.72
2018-03-08T20:07:29.237Z,94851.47
2018-03-08T20:09:57.239Z,94853.83
2018-03-08T20:12:25.184Z,94853.56
2018-03-08T20:14:53.134Z,94858.49
2018-03-08T20:17:21.125Z,94873.05
2018-03-08T20:19:49.055Z,94859.63
2018-03-08T20:22:16.961Z,94791.19
2018-03-08T20:24:44.968Z,94878.08
2018-03-08T20:27:12.958Z,94771.05
2018-03-08T20:29:41.051Z,94882.62
2018-03-08T20:32:09.022Z,94864.81
2018-03-08T20:34:37.406Z,94872.77
2018-03-08T20:37:05.449Z,94880.38
2018-03-08T20:39:33.367Z,94862.38
2018-03-08T20:42:01.361Z,94869.97
2018-03-08T20:44:29.333Z,94869.69
2018-03-08T20:46:57.229Z,94872.85
2018-03-08T20:49:25.170Z,94874.09
2018-03-08T20:51:53.135Z,94876.64
2018-03-08T20:54:21.182Z,94881.51
2018-03-08T20:56:49.093Z,94881.03
2018-03-08T20:59:17.118Z,94879.53
2018-03-08T21:01:45.093Z,94891.66
2018-03-08T21:04:13.095Z,94890.67
2018-03-08T21:06:41.040Z,94892.16
2018-03-08T21:09:09.076Z,94794.30
2018-03-08T21:11:36.990Z,94899.77
2018-03-08T21:14:04.934Z,94909.48
2018-03-08T21:16:32.821Z,94922.86
2018-03-08T21:19:00.818Z,94940.91
2018-03-08T21:21:28.743Z,94948.57
2018-03-08T21:23:56.706Z,94949.69
2018-03-08T21:26:24.613Z,94945.52
2018-03-08T21:28:52.653Z,94955.38
2018-03-08T21:31:20.613Z,94951.93
2018-03-08T21:33:48.516Z,94945.51
2018-03-08T21:36:16.877Z,94946.91
2018-03-08T21:38:44.800Z,94952.05
2018-03-08T21:41:12.729Z,94965.60
2018-03-08T21:43:40.660Z,94978.59
2018-03-08T21:46:08.545Z,94960.40
2018-03-08T21:48:36.528Z,94972.59
2018-03-08T21:51:04.478Z,94964.66
2018-03-08T21:53:32.426Z,94966.03
2018-03-08T21:56:00.393Z,94989.70
2018-03-08T21:58:28.334Z,94987.36
2018-03-08T22:00:56.262Z,94990.92
2018-03-08T22:03:24.200Z,94984.57
2018-03-08T22:05:52.110Z,94979.42
2018-03-08T22:08:20.070Z,94977.19
2018-03-08T22:10:47.996Z,94974.58
2018-03-08T22:13:15.898Z,94977.52
2018-03-08T22:15:43.897Z,94971.81
2018-03-08T22:18:11.812Z,94977.80
2018-03-08T22:20:39.770Z,94988.45
2018-03-08T22:23:07.843Z,94987.83
2018-03-08T22:25:35.804Z,94988.09
2018-03-08T22:28:03.736Z,94988.14
2018-03-08T22:30:31.695Z,94991.54
2018-03-08T22:32:59.688Z,94996.02
2018-03-08T22:35:27.609Z,95002.98
2018-03-08T22:37:55.991Z,95005.38
2018-03-08T22:40:23.886Z,95010.08
2018-03-08T22:42:51.891Z,95004.06
2018-03-08T22:45:19.813Z,95015.48
2018-03-08T22:47:47.775Z,95021.25
2018-03-08T22:50:15.692Z,95029.52
2018-03-08T22:52:43.606Z,95025.92
2018-03-08T22:55:11.584Z,95029.88
2018-03-08T22:57:39.528Z,95037.70
2018-03-08T23:00:07.548Z,95037.61
2018-03-08T23:02:35.501Z,95034.98
2018-03-08T23:05:03.453Z,95041.23
2018-03-08T23:07:31.360Z,95046.71
2018-03-08T23:09:59.252Z,95046.48
2018-03-08T23:12:27.242Z,95044.92
2018-03-08T23:14:55.176Z,95056.83
2018-03-08T23:17:23.073Z,95058.34
2018-03-08T23:19:50.993Z,95061.99
2018-03-08T23:22:18.908Z,95069.87
2018-03-08T23:24:46.886Z,95069.86
2018-03-08T23:27:14.864Z,95067.93
2018-03-08T23:29:42.860Z,95073.91
2018-03-08T23:32:10.811Z,95075.66
2018-03-08T23:34:38.720Z,95073.03
2018-03-08T23:37:06.730Z,95082.70
2018-03-08T23:39:34.942Z,95082.20
2018-03-08T23:42:02.961Z,95084.58
2018-03-08T23:44:30.917Z,95087.78
2018-03-08T23:46:58.849Z,95094.88
2018-03-08T23:49:26.753Z,95095.26
2018-03-08T23:51:54.724Z,95100.24
2018-03-08T23:54:22.684Z,95091.02
2018-03-08T23:56:50.646Z,95090.81
2018-03-08T23:59:18.609Z,95092.64
